Bei Facebook empfehlenBei Twitter postenGoogle plusPinterest

Das Wetter im Erzgebirge am 21.09.2015

Wetter und Klima am 21.09.2015 Holzhau im Erzgebirge (630m ü.NN)
Letzte gemessene Temperatur und Uhrzeit der Messung23:45:00 Uhr6.30 °C
Temperatur (Maximum / Höchstwert) und Uhrzeit der Messung14:30:00 Uhr13.90 °C
Temperatur (Minimum / Tiefstwert) und Uhrzeit der Messung23:00:005.90 °C
Errechneter Absolutwert der Temperaturschwankungen zwischen Tmin und Tmax des Tages8.00 K
Errechnete Tagesmitteltemperatur9.48646 °C
Gesamt - Niederschlag des Tages (in flüssiger Form)1.03 Liter / m²
Luftdruck (Maximum / Höchstwert) und Zeitpunkt der Messung00:00:00 Uhr1016.20 hPa
Luftdruck (Minimum / Tiefstwert) und Zeitpunkt der Messung23:45:00 Uhr1010.30 hPa
Errechneter Absolutwert der Luftdruckschwankungen des Tages5.90 hPa
Höchste gemessene Windgeschwindigkeit und Uhrzeit der Messung05:45:00 Uhr183.60 km/h
Errechnete Windhäufigkeit in Relation zu den Messwerten des Tages7.29167 %
Niedrigste Windkühle (Windchill) und Zeitpunkt der Messung05:45:00 Uhr-0.50 °C
Taupunkt (Maximum / Höchstwert) und Uhrzeit der Messung13:15:00 Uhr12.30 °C
Taupunkt (Minimum / Tiefstwert) und Uhrzeit der Messung22:45:004.50 °C
Anzahl der automatisch eingelesenen Messwerte 96

Detaillierte Wetter- und Klima- Messwerte für den 21.09.2015 in Holzhau im Erzgebirge (630m ü.NN)
ZeitTemperaturLuftdruckRel. LuftfeuchteWindWindrichtungWindchillTaupunktNiederschlag l/m²
23:45:006.30 °C1010.30 hPa92.00 %5.10 °C1.03
23:30:006.20 °C1010.40 hPa92.00 %5.00 °C1.03
23:15:006.10 °C1010.40 hPa92.00 %2.52 km/hSSO6.10 °C4.90 °C1.03
23:00:005.90 °C1010.60 hPa92.00 %4.70 °C1.03
22:45:005.90 °C1010.70 hPa91.00 %4.50 °C1.03
22:30:005.90 °C1010.80 hPa91.00 %4.50 °C1.03
22:15:005.90 °C1010.90 hPa91.00 %4.50 °C1.03
22:00:005.90 °C1011.00 hPa91.00 %4.50 °C1.03
21:45:006.00 °C1011.10 hPa91.00 %4.60 °C1.03
21:30:006.10 °C1011.30 hPa90.00 %4.60 °C1.03
21:15:006.40 °C1011.30 hPa90.00 %4.90 °C1.03
21:00:006.90 °C1011.50 hPa90.00 %5.40 °C1.03
20:45:007.20 °C1011.40 hPa90.00 %5.70 °C1.03
20:30:007.30 °C1011.50 hPa89.00 %5.60 °C1.03
20:15:007.40 °C1011.60 hPa89.00 %2.16 km/hSO7.40 °C5.70 °C1.03
20:00:007.80 °C1011.60 hPa88.00 %5.90 °C1.03
19:45:008.10 °C1011.70 hPa87.00 %6.10 °C1.03
19:30:008.80 °C1011.80 hPa87.00 %6.80 °C1.03
19:15:009.60 °C1011.70 hPa86.00 %7.40 °C1.03
19:00:0010.70 °C1011.90 hPa86.00 %8.50 °C1.03
18:45:0011.70 °C1011.80 hPa85.00 %9.30 °C1.03
18:30:0012.50 °C1012.10 hPa86.00 %10.20 °C1.03
18:15:0012.80 °C1012.00 hPa86.00 %10.50 °C1.03
18:00:0012.60 °C1012.00 hPa86.00 %10.30 °C1.03
17:45:0012.40 °C1012.20 hPa86.00 %10.10 °C1.03
17:30:0012.20 °C1012.20 hPa86.00 %9.90 °C1.03
17:15:0012.30 °C1012.20 hPa85.00 %9.90 °C1.03
17:00:0012.30 °C1012.30 hPa85.00 %9.90 °C1.03
16:45:0012.50 °C1012.30 hPa84.00 %9.90 °C1.03
16:30:0012.50 °C1012.30 hPa84.00 %9.90 °C1.03
16:15:0012.60 °C1012.60 hPa84.00 %10.00 °C1.03
16:00:0012.80 °C1012.50 hPa84.00 %10.20 °C1.03
15:45:0012.60 °C1012.60 hPa84.00 %10.00 °C1.03
15:30:0012.40 °C1012.80 hPa83.00 %9.60 °C1.03
15:15:0012.40 °C1012.70 hPa82.00 %9.40 °C1.03
15:00:0012.90 °C1012.80 hPa82.00 %9.90 °C1.03
14:45:0013.80 °C1012.90 hPa84.00 %11.10 °C1.03
14:30:0013.90 °C1013.10 hPa86.00 %11.60 °C1.03
14:15:0013.10 °C1013.10 hPa88.00 %11.20 °C1.03
14:00:0012.20 °C1013.30 hPa88.00 %10.30 °C1.03
13:45:0012.00 °C1013.50 hPa87.00 %9.90 °C1.03
13:30:0013.20 °C1013.60 hPa88.00 %9.00 km/hSSW12.60 °C11.30 °C1.03
13:15:0013.90 °C1013.70 hPa90.00 %12.30 °C1.03
13:00:0012.90 °C1013.80 hPa91.00 %11.50 °C1.03
12:45:0012.70 °C1013.90 hPa92.00 %11.40 °C1.03
12:30:0011.80 °C1013.80 hPa93.00 %10.70 °C1.03
12:15:0011.40 °C1014.10 hPa93.00 %10.30 °C1.03
12:00:0011.60 °C1014.10 hPa93.00 %10.50 °C1.03
11:45:0011.60 °C1014.10 hPa94.00 %10.70 °C1.03
11:30:0011.10 °C1014.40 hPa94.00 %10.20 °C1.03
11:15:0010.40 °C1014.40 hPa94.00 %9.50 °C1.03
11:00:0010.40 °C1014.40 hPa94.00 %9.50 °C1.03
10:45:0010.30 °C1014.30 hPa94.00 %9.40 °C1.03
10:30:0010.30 °C1014.30 hPa94.00 %9.40 °C1.03
10:15:0010.50 °C1014.30 hPa95.00 %9.70 °C1.03
10:00:0010.10 °C1014.60 hPa95.00 %9.30 °C1.03
09:45:009.80 °C1014.50 hPa95.00 %9.00 °C1.03
09:30:009.70 °C1014.50 hPa95.00 %8.90 °C1.03
09:15:009.40 °C1014.30 hPa95.00 %8.60 °C1.03
09:00:009.10 °C1014.50 hPa95.00 %8.30 °C1.03
08:45:008.80 °C1014.50 hPa95.00 %8.00 °C1.03
08:30:008.60 °C1014.50 hPa95.00 %7.80 °C1.03
08:15:008.30 °C1014.40 hPa95.00 %7.50 °C1.03
08:00:008.30 °C1014.60 hPa95.00 %7.50 °C1.03
07:45:008.10 °C1014.70 hPa95.00 %7.30 °C1.03
07:30:008.10 °C1014.60 hPa95.00 %7.30 °C1.03
07:15:008.00 °C1014.70 hPa95.00 %7.20 °C1.03
07:00:008.10 °C1014.80 hPa95.00 %7.30 °C1.03
06:45:008.10 °C1014.60 hPa95.00 %7.30 °C1.03
06:30:008.10 °C1014.50 hPa94.00 %7.20 °C1.03
06:15:008.20 °C1014.40 hPa94.00 %7.30 °C1.03
06:00:008.10 °C1014.40 hPa94.00 %7.20 °C1.03
05:45:008.20 °C1014.30 hPa94.00 %183.60 km/hNNW-0.50 °C7.30 °C1.03
05:30:008.20 °C1014.40 hPa94.00 %7.30 °C1.03
05:15:008.20 °C1014.60 hPa94.00 %7.30 °C1.03
05:00:008.20 °C1014.50 hPa94.00 %5.40 km/hWSW7.60 °C7.30 °C1.03
04:45:008.20 °C1014.80 hPa94.00 %2.88 km/hNNW8.20 °C7.30 °C1.03
04:30:008.10 °C1014.60 hPa94.00 %7.20 °C1.03
04:15:008.30 °C1014.70 hPa94.00 %7.40 °C1.03
04:00:008.20 °C1014.80 hPa94.00 %7.30 °C1.03
03:45:008.20 °C1014.90 hPa94.00 %7.30 °C1.03
03:30:008.20 °C1015.00 hPa94.00 %7.30 °C1.03
03:15:008.20 °C1015.10 hPa94.00 %7.30 °C1.03
03:00:008.20 °C1015.10 hPa93.00 %7.10 °C1.03
02:45:008.30 °C1015.30 hPa93.00 %7.20 °C1.03
02:30:008.40 °C1015.30 hPa93.00 %1.80 km/hNW8.40 °C7.30 °C0.52
02:15:008.40 °C1015.70 hPa93.00 %7.30 °C0.52
02:00:008.40 °C1015.70 hPa93.00 %7.30 °C0.52
01:45:008.30 °C1015.70 hPa93.00 %7.20 °C0.52
01:30:008.30 °C1015.80 hPa93.00 %7.20 °C0.52
01:15:008.20 °C1015.90 hPa93.00 %7.10 °C0.52
01:00:008.10 °C1015.90 hPa93.00 %7.00 °C0.52
00:45:008.20 °C1016.00 hPa92.00 %7.00 °C0.52
00:30:008.10 °C1016.00 hPa92.00 %6.90 °C 
00:15:007.90 °C1015.90 hPa92.00 %6.70 °C 
00:00:007.80 °C1016.20 hPa92.00 %6.60 °C 

Permanenter Link zu dieser Seite: Wetter im Erzgebirge am 21.09.2015
Performance-Info: Die Erstellung der Seite / Statistik(en) / Tabelle(n) erforderte 5 Datenbankserver-Abfrage(n) und dauerte 100 Millisekunden. (Dieser Messwert ist von der Gesamt-Auslastung des Servers abhängig.)
Erzgebirge - Wetter | Erzgebirge - Wetter (Mobilgeräte) | Komplette Klimadatenbank